Weather reports worldwide

Advertisment
Puerto Leitariegos, Spain (8052): temperature & dewpoint: 10.12.2018 01:00:00 - 16.12.2018 01:00:00 (CET)Puerto Leitariegos, Spain (8052): wind speed & gusts: 10.12.2018 01:00:00 - 16.12.2018 01:00:00 (CET)Puerto Leitariegos, Spain (8052): wind direction: 10.12.2018 01:00:00 - 16.12.2018 01:00:00 (CET)Puerto Leitariegos, Spain (8052): visibility: 10.12.2018 01:00:00 - 16.12.2018 01:00:00 (CET)Puerto Leitariegos, Spain (8052): sunshine duration: 10.12.2018 01:00:00 - 16.12.2018 01:00:00 (CET)Puerto Leitariegos, Spain (8052): precipitation: 10.12.2018 01:00:00 - 16.12.2018 01:00:00 (CET)
Date & Time tt [°C] td [°C] ff [km/h] ff [kn] fx [km/h] fx [kn] dd vv [km] sd [min] rr [mm]
16.12.2018 01:00:00 - - - - - - - - - -
16.12.2018 00:00:00 5,4 4,7 14 8 37 20 NNW 0,5 0 1,4
15.12.2018 23:00:00 5,7 5,0 14 7 24 13 NNW 0,7 0 2,4
15.12.2018 22:00:00 6,0 5,1 6 4 14 8 SSE 8 0 0,8
15.12.2018 21:00:00 - - - - - - - - - -
15.12.2018 20:00:00 6,3 5,1 10 6 35 19 SE 7 0 3,6
15.12.2018 19:00:00 - - - - - - - - - -
15.12.2018 18:00:00 5,8 4,8 18 10 49 27 SE 9 0 3,2
15.12.2018 17:00:00 - - - - - - - - - -
15.12.2018 16:00:00 6,0 5,0 11 6 44 24 ESE 20 0 0,0
15.12.2018 15:00:00 5,6 4,7 9 5 37 20 E 10 0 1,0
15.12.2018 14:00:00 5,1 4,4 19 10 62 33 ESE 20 0 0,0
15.12.2018 13:00:00 - - - - - - - - - -
15.12.2018 12:00:00 5,5 3,7 35 19 82 44 SE 20 1 0,0
15.12.2018 11:00:00 - - - - - - - - - -
15.12.2018 10:00:00 5,9 5,3 26 14 62 33 SE 20 0 0,0
15.12.2018 09:00:00 5,0 4,4 8 4 29 16 SSE 20 0 0,0
15.12.2018 08:00:00 5,1 4,7 16 9 34 18 SSE 20 0 0,0
15.12.2018 07:00:00 - - - - - - - - - -
15.12.2018 06:00:00 3,8 3,2 15 8 36 19 SSE 0,4 0 0,2
15.12.2018 05:00:00 3,6 3,0 20 11 33 18 SE 0,5 0 0,4
15.12.2018 04:00:00 3,5 2,9 12 7 25 14 SSE 1,9 0 0,6
15.12.2018 03:00:00 - - - - - - - - - -
15.12.2018 02:00:00 4,2 3,6 15 8 35 19 SSW 2,8 0 1,8
15.12.2018 01:00:00 2,0 1,4 7 4 16 9 SE 0,4 0 -
15.12.2018 00:00:00 - - - - - - - - - -
14.12.2018 23:00:00 1,5 0,9 5 3 14 8 S 1,4 0 1,4
14.12.2018 22:00:00 1,1 0,5 11 6 19 10 SE 0,6 0 1,0
14.12.2018 21:00:00 0,9 0,3 9 5 21 11 SSE 0,4 0 3,0
14.12.2018 20:00:00 0,8 0,2 10 5 16 8 ESE 0,2 0 2,2
14.12.2018 19:00:00 - - - - - - - - - -
14.12.2018 18:00:00 1,0 0,4 6 3 14 7 SSE 1,7 0 1,0
14.12.2018 17:00:00 1,0 0,4 8 4 14 7 ESE - 0 0,4
14.12.2018 16:00:00 1,3 0,6 10 5 16 8 E 20 0 0,0
14.12.2018 15:00:00 1,1 0,4 4 2 10 6 SE 20 0 0,0
14.12.2018 14:00:00 0,7 0,0 3 2 18 10 NNE 20 0 0,0
14.12.2018 13:00:00 0,3 -0,4 12 7 19 11 NNW 12 10 -
14.12.2018 12:00:00 - - - - - - - - - -
14.12.2018 11:00:00 -0,3 -0,9 12 7 29 16 NW 0,7 0 0,0
14.12.2018 10:00:00 -0,8 -1,4 21 11 30 16 NW 0,8 0 0,0
14.12.2018 09:00:00 - - - - - - - - - -
14.12.2018 08:00:00 -1,2 -1,8 23 12 37 20 NNW 2,0 0 0,0
14.12.2018 07:00:00 -1,1 -1,7 27 15 41 22 NW 1,1 0 -
14.12.2018 06:00:00 -1,1 -1,7 24 13 40 21 NNW 0,6 0 0,0
14.12.2018 05:00:00 -1,0 -1,6 21 12 40 21 NNW 0,3 0 0,0
14.12.2018 04:00:00 -1,1 -1,7 19 10 39 21 NNW - 0 0,0
14.12.2018 03:00:00 -1,0 -1,6 24 13 40 22 NNW 13 0 0,0
14.12.2018 02:00:00 -0,8 -1,4 26 14 41 22 NW 0,3 0 0,0
14.12.2018 01:00:00 -0,7 -1,3 28 15 44 24 NW 1,0 0 -
14.12.2018 00:00:00 -0,8 -1,4 23 13 53 29 NNW 2,3 0 0,0
13.12.2018 23:00:00 -0,7 -1,3 30 16 48 26 NW 0,2 0 0,0
13.12.2018 22:00:00 -0,9 -1,5 29 16 53 29 NNW 1,6 0 0,0
13.12.2018 21:00:00 -0,9 -1,5 28 15 52 28 NW 0,3 0 0,0
13.12.2018 20:00:00 -1,0 -1,6 27 14 42 23 NNW 0,4 0 0,0
13.12.2018 19:00:00 -1,1 -1,7 30 16 51 27 NW 0,7 0 -
13.12.2018 18:00:00 - - - - - - - - - -
13.12.2018 17:00:00 -1,2 -1,9 37 20 56 30 NW 0,2 0 0,0
13.12.2018 16:00:00 -1,0 -1,7 34 18 72 39 NNW 1,6 0 0,0
13.12.2018 15:00:00 - - - - - - - - - -
13.12.2018 14:00:00 -0,7 -1,7 38 21 74 40 NW 15 4 0,0
13.12.2018 13:00:00 -0,8 -1,5 40 21 73 39 NW 0,3 0 -
13.12.2018 12:00:00 -1,1 -1,8 41 22 72 39 NW 1,6 0 0,0
13.12.2018 11:00:00 -0,7 -1,4 39 21 57 31 NW 0,4 0 0,0
13.12.2018 10:00:00 -0,9 -1,6 39 21 57 31 NW 1,0 0 0,2
13.12.2018 09:00:00 -0,6 -1,3 24 13 39 21 NNW 5 0 0,0
13.12.2018 08:00:00 - - - - - - - - - -
13.12.2018 07:00:00 0,0 -0,8 12 7 23 12 NNW 0,9 0 -
13.12.2018 06:00:00 - - - - - - - - - -
13.12.2018 05:00:00 2,2 0,1 17 9 49 26 NW 9 0 1,4
13.12.2018 04:00:00 3,5 1,5 10 5 38 21 NW 6 0 0,8
13.12.2018 03:00:00 3,4 2,2 17 9 37 20 ESE 7 0 1,2
13.12.2018 02:00:00 2,9 1,9 11 6 26 14 ESE 9 0 0,4
13.12.2018 01:00:00 2,3 0,8 16 9 51 27 SE 8 0 -
13.12.2018 00:00:00 - - - - - - - - - -
12.12.2018 23:00:00 3,3 2,0 19 10 72 39 SE 19 0 0,0
12.12.2018 22:00:00 - - - - - - - - - -
12.12.2018 21:00:00 2,8 1,2 21 11 43 23 SSE 17 0 0,0
12.12.2018 20:00:00 3,2 0,1 26 14 55 30 SSE 20 0 0,0
12.12.2018 19:00:00 3,2 -0,2 21 11 40 21 S 20 0 -
12.12.2018 18:00:00 3,1 -0,5 10 5 22 12 ESE 20 0 0,0
12.12.2018 17:00:00 3,1 0,2 16 8 26 14 SSE 20 0 0,0
12.12.2018 16:00:00 - - - - - - - - - -
12.12.2018 15:00:00 3,5 0,4 17 9 27 15 SSE 20 0 0,0
12.12.2018 14:00:00 - - - - - - - - - -
12.12.2018 13:00:00 - - - - - - - - - -
12.12.2018 12:00:00 3,0 0,6 14 7 20 11 ESE 20 5 0,0
12.12.2018 11:00:00 2,6 0,7 10 5 22 12 ESE 20 0 0,0
12.12.2018 10:00:00 2,0 0,2 16 9 23 12 SE 20 0 0,0
12.12.2018 09:00:00 1,3 -0,6 6 4 10 5 SE 20 0 0,0
12.12.2018 08:00:00 - - - - - - - - - -
12.12.2018 07:00:00 1,3 -0,9 3 2 11 6 W 20 0 -
12.12.2018 06:00:00 0,9 -1,5 8 4 14 8 WNW 20 0 0,0
12.12.2018 05:00:00 1,4 -1,0 3 2 9 5 W 20 0 0,0
12.12.2018 04:00:00 - - - - - - - - - -
12.12.2018 03:00:00 2,5 1,5 18 10 23 12 NW 12 0 0,0
12.12.2018 02:00:00 - - - - - - - - - -
12.12.2018 01:00:00 3,2 1,3 9 5 14 7 NW 20 0 -
12.12.2018 00:00:00 - - - - - - - - - -
11.12.2018 23:00:00 4,2 1,4 4 2 16 9 NW 20 0 0,0
11.12.2018 22:00:00 3,7 1,9 13 7 23 13 WNW 17 0 0,0
11.12.2018 21:00:00 - - - - - - - - - -
11.12.2018 20:00:00 3,6 -0,2 5 3 22 12 NNW 20 0 0,0
11.12.2018 19:00:00 - - - - - - - - - -
11.12.2018 18:00:00 8,3 0,8 16 8 38 21 NNW 20 0 0,0
11.12.2018 17:00:00 - - - - - - - - - -
11.12.2018 16:00:00 9,8 1,2 13 7 36 19 NW 20 0 0,0
11.12.2018 15:00:00 10,1 1,2 14 8 31 17 NW 20 17 0,0
11.12.2018 14:00:00 10,8 0,8 8 4 29 16 NNW 20 43 0,0
11.12.2018 13:00:00 10,7 -0,7 13 7 28 15 NW 20 32 -
11.12.2018 12:00:00 9,0 -1,4 7 4 22 12 SE 20 41 0,0
11.12.2018 11:00:00 8,8 -2,1 4 2 12 7 SSE 20 53 0,0
11.12.2018 10:00:00 - - - - - - - - - -
11.12.2018 09:00:00 5,5 -3,3 2 1 12 7 NNW 20 0 0,0
11.12.2018 08:00:00 5,8 -4,0 8 5 11 6 SSE 20 0 0,0
11.12.2018 07:00:00 - - - - - - - - - -
11.12.2018 06:00:00 5,7 -4,1 5 3 9 5 SSE 20 0 0,0
11.12.2018 05:00:00 5,1 -3,7 5 3 8 4 SSE 20 0 0,0
11.12.2018 04:00:00 4,1 -3,2 8 4 9 5 SE 20 0 0,0
11.12.2018 03:00:00 - - - - - - - - - -
11.12.2018 02:00:00 4,3 -3,0 7 4 9 5 SE 20 0 0,0
11.12.2018 01:00:00 - - - - - - - - - -
11.12.2018 00:00:00 4,8 -2,7 5 3 9 5 SSE 20 0 0,0
10.12.2018 23:00:00 5,8 -3,0 6 3 11 6 SSE 20 0 0,0
10.12.2018 22:00:00 - - - - - - - - - -
10.12.2018 21:00:00 6,6 -2,5 8 5 16 9 SSE 20 0 0,0
10.12.2018 20:00:00 - - - - - - - - - -
10.12.2018 19:00:00 6,5 -2,4 5 3 12 7 SE 20 0 -
10.12.2018 18:00:00 7,2 -2,0 5 3 13 7 S 20 0 0,0
10.12.2018 17:00:00 9,1 -1,9 7 4 16 8 S 20 0 0,0
10.12.2018 16:00:00 9,8 -1,5 12 7 17 9 S 20 19 0,0
10.12.2018 15:00:00 11,4 -2,4 10 5 17 9 S 20 60 0,0
10.12.2018 14:00:00 10,6 -3,1 11 6 16 9 SSE 20 60 0,0
10.12.2018 13:00:00 - - - - - - - - - -
10.12.2018 12:00:00 9,6 -6,2 11 6 15 8 SE 20 60 0,0
10.12.2018 11:00:00 - - - - - - - - - -
10.12.2018 10:00:00 4,9 -6,0 6 4 9 5 SE 20 40 0,0
10.12.2018 09:00:00 2,1 -6,7 2 1 5 3 SSE 20 0 0,0
10.12.2018 08:00:00 - - - - - - - - - -
10.12.2018 07:00:00 2,3 -7,3 1 1 9 5 NNW 20 0 -
10.12.2018 06:00:00 2,3 -8,4 1 1 6 4 NW 20 0 0,0
10.12.2018 05:00:00 - - - - - - - - - -
10.12.2018 04:00:00 3,0 -9,5 4 2 12 7 W 20 0 0,0
10.12.2018 03:00:00 3,3 -9,6 6 3 12 7 NW 20 0 0,0
10.12.2018 02:00:00 3,5 -10,1 5 3 11 6 NW 20 0 0,0
10.12.2018 01:00:00 - - - - - - - - - -

tt = temperature
td = dewpoint
ff = wind speed
fx = gusts
dd = wind direction
vv = visibility
sd = sunshine duration
rr = precipitation

Next stations